Bei Facebook empfehlenBei Twitter postenGoogle plusPinterest

Das Wetter im Erzgebirge am 31.10.2015

Wetter und Klima am 31.10.2015 Holzhau im Erzgebirge (630m ü.NN)
Letzte gemessene Temperatur und Uhrzeit der Messung23:59:00 Uhr6.50 °C
Temperatur (Maximum / Höchstwert) und Uhrzeit der Messung13:44:00 Uhr13.20 °C
Temperatur (Minimum / Tiefstwert) und Uhrzeit der Messung03:44:004.40 °C
Errechneter Absolutwert der Temperaturschwankungen zwischen Tmin und Tmax des Tages8.80 K
Errechnete Tagesmitteltemperatur8.04479 °C
Gesamt - Niederschlag des Tages (in flüssiger Form)0.00 Liter / m²
Luftdruck (Maximum / Höchstwert) und Zeitpunkt der Messung22:44:00 Uhr1028.40 hPa
Luftdruck (Minimum / Tiefstwert) und Zeitpunkt der Messung06:29:00 Uhr1025.10 hPa
Errechneter Absolutwert der Luftdruckschwankungen des Tages3.30 hPa
Höchste gemessene Windgeschwindigkeit und Uhrzeit der Messung16:59:00 Uhr183.60 km/h
Errechnete Windhäufigkeit in Relation zu den Messwerten des Tages64.58333 %
Niedrigste Windkühle (Windchill) und Zeitpunkt der Messung03:29:00 Uhr0.30 °C
Taupunkt (Maximum / Höchstwert) und Uhrzeit der Messung11:14:00 Uhr8.20 °C
Taupunkt (Minimum / Tiefstwert) und Uhrzeit der Messung03:44:003.20 °C
Anzahl der automatisch eingelesenen Messwerte 96

Detaillierte Wetter- und Klima- Messwerte für den 31.10.2015 in Holzhau im Erzgebirge (630m ü.NN)
ZeitTemperaturLuftdruckRel. LuftfeuchteWindWindrichtungWindchillTaupunktNiederschlag l/m²
23:59:006.50 °C1028.10 hPa84.00 %7.20 km/hSO5.10 °C4.00 °C 
23:44:006.60 °C1028.10 hPa84.00 %8.64 km/hOSO4.90 °C4.10 °C 
23:29:006.60 °C1028.10 hPa84.00 %4.10 °C 
23:14:006.70 °C1028.00 hPa84.00 %4.20 °C 
22:59:006.80 °C1028.30 hPa83.00 %16.92 km/hONO3.70 °C4.10 °C 
22:44:006.90 °C1028.40 hPa83.00 %12.60 km/hS4.50 °C4.20 °C 
22:29:007.10 °C1028.40 hPa82.00 %7.92 km/hO5.60 °C4.20 °C 
22:14:007.10 °C1028.40 hPa82.00 %4.20 °C 
21:59:007.20 °C1028.40 hPa82.00 %9.00 km/hSO5.50 °C4.30 °C 
21:44:007.30 °C1028.20 hPa82.00 %7.56 km/hNO5.90 °C4.40 °C 
21:29:007.30 °C1028.40 hPa81.00 %17.28 km/hONO4.30 °C4.30 °C 
21:14:007.40 °C1028.40 hPa81.00 %4.40 °C 
20:59:007.70 °C1028.40 hPa80.00 %6.12 km/hSO6.80 °C4.50 °C 
20:44:007.90 °C1028.30 hPa79.00 %12.24 km/hOSO5.70 °C4.50 °C 
20:29:008.10 °C1028.00 hPa78.00 %7.92 km/hO6.80 °C4.50 °C 
20:14:008.30 °C1028.10 hPa77.00 %17.28 km/hO5.50 °C4.50 °C 
19:59:008.50 °C1027.90 hPa76.00 %8.64 km/hSO7.10 °C4.50 °C 
19:44:008.70 °C1027.90 hPa75.00 %10.44 km/hOSO7.00 °C4.50 °C 
19:29:008.90 °C1028.00 hPa73.00 %4.30 °C 
19:14:009.00 °C1028.20 hPa73.00 %7.56 km/hONO7.90 °C4.40 °C 
18:59:009.20 °C1027.90 hPa72.00 %10.44 km/hO7.60 °C4.40 °C 
18:44:009.30 °C1028.00 hPa72.00 %7.92 km/hSO8.20 °C4.50 °C 
18:29:009.40 °C1028.00 hPa71.00 %4.40 °C 
18:14:009.50 °C1027.80 hPa71.00 %8.28 km/hOSO8.40 °C4.50 °C 
17:59:009.50 °C1027.90 hPa72.00 %4.68 km/hSO9.50 °C4.70 °C 
17:44:009.40 °C1027.70 hPa72.00 %15.84 km/hO7.10 °C4.60 °C 
17:29:009.40 °C1027.60 hPa72.00 %4.60 °C 
17:14:009.50 °C1027.70 hPa72.00 %11.16 km/hNO7.80 °C4.70 °C 
16:59:009.50 °C1027.90 hPa72.00 %183.60 km/hOSO1.50 °C4.70 °C 
16:44:009.60 °C1027.70 hPa72.00 %2.52 km/hO9.60 °C4.80 °C 
16:29:009.90 °C1027.70 hPa71.00 %4.90 °C 
16:14:0010.40 °C1027.70 hPa70.00 %1.44 km/hOSO10.40 °C5.20 °C 
15:59:0011.20 °C1027.90 hPa68.00 %1.44 km/hSSO11.20 °C5.50 °C 
15:44:0011.90 °C1027.90 hPa68.00 %3.96 km/hO11.90 °C6.20 °C 
15:29:0012.10 °C1027.70 hPa67.00 %6.20 °C 
15:14:0012.20 °C1027.90 hPa67.00 %1.80 km/hSO12.20 °C6.30 °C 
14:59:0012.40 °C1027.60 hPa66.00 %5.76 km/hSW12.30 °C6.20 °C 
14:44:0012.80 °C1027.70 hPa65.00 %6.40 °C 
14:29:0012.90 °C1027.50 hPa64.00 %6.30 °C 
14:14:0013.10 °C1027.50 hPa64.00 %3.24 km/hSO13.10 °C6.50 °C 
13:59:0013.10 °C1027.50 hPa64.00 %6.50 °C 
13:44:0013.20 °C1027.60 hPa65.00 %11.52 km/hSO12.30 °C6.80 °C 
13:29:0012.80 °C1027.50 hPa65.00 %6.40 °C 
13:14:0012.60 °C1027.70 hPa65.00 %6.20 °C 
12:59:0012.80 °C1027.60 hPa67.00 %14.40 km/hSO11.40 °C6.80 °C 
12:44:0012.60 °C1027.70 hPa69.00 %11.52 km/hSO11.50 °C7.10 °C 
12:29:0012.40 °C1027.60 hPa70.00 %10.08 km/hOSO11.50 °C7.10 °C 
12:14:0012.20 °C1027.50 hPa71.00 %7.10 °C 
11:59:0011.90 °C1027.30 hPa73.00 %6.12 km/hSO11.60 °C7.20 °C 
11:44:0011.80 °C1027.10 hPa77.00 %7.90 °C 
11:29:0011.20 °C1026.90 hPa80.00 %3.24 km/hSO11.20 °C7.90 °C 
11:14:0010.80 °C1026.80 hPa84.00 %12.60 km/hOSO9.20 °C8.20 °C 
10:59:0010.20 °C1026.70 hPa85.00 %10.80 km/hOSO8.70 °C7.80 °C 
10:44:009.90 °C1026.70 hPa87.00 %7.80 °C 
10:29:009.40 °C1026.70 hPa89.00 %9.00 km/hOSO8.10 °C7.70 °C 
10:14:009.10 °C1026.70 hPa91.00 %7.92 km/hO8.00 °C7.70 °C 
09:59:008.50 °C1026.80 hPa91.00 %3.60 km/hSSO8.50 °C7.10 °C 
09:44:008.00 °C1026.80 hPa92.00 %3.60 km/hONO8.00 °C6.80 °C 
09:29:007.80 °C1026.90 hPa93.00 %5.40 km/hSO7.10 °C6.70 °C 
09:14:007.60 °C1026.40 hPa93.00 %2.16 km/hOSO7.60 °C6.50 °C 
08:59:007.20 °C1026.30 hPa94.00 %3.96 km/hOSO7.20 °C6.30 °C 
08:44:006.50 °C1026.20 hPa94.00 %12.24 km/hSO4.00 °C5.60 °C 
08:29:005.90 °C1025.90 hPa93.00 %4.68 km/hONO5.90 °C4.90 °C 
08:14:005.80 °C1026.00 hPa93.00 %3.96 km/hSO5.80 °C4.80 °C 
07:59:005.70 °C1025.90 hPa93.00 %3.24 km/hO5.70 °C4.70 °C 
07:44:005.60 °C1025.80 hPa93.00 %14.04 km/hNO2.60 °C4.60 °C 
07:29:005.50 °C1025.40 hPa93.00 %12.96 km/hNNO2.70 °C4.50 °C 
07:14:005.40 °C1025.30 hPa93.00 %4.40 °C 
06:59:005.40 °C1025.50 hPa93.00 %4.40 °C 
06:44:005.20 °C1025.20 hPa93.00 %10.08 km/hONO2.90 °C4.20 °C 
06:29:005.30 °C1025.10 hPa93.00 %5.04 km/hO4.40 °C4.30 °C 
06:14:005.40 °C1025.30 hPa93.00 %5.40 km/hSO4.40 °C4.40 °C 
05:59:005.60 °C1025.60 hPa93.00 %4.60 °C 
05:44:005.80 °C1025.60 hPa93.00 %4.80 °C 
05:29:005.80 °C1025.80 hPa93.00 %4.80 °C 
05:14:005.80 °C1025.90 hPa93.00 %6.12 km/hSSO4.60 °C4.80 °C 
04:59:005.80 °C1026.00 hPa93.00 %9.36 km/hSSO3.80 °C4.80 °C 
04:44:005.80 °C1026.10 hPa93.00 %1.44 km/hSO5.80 °C4.80 °C 
04:29:005.60 °C1026.00 hPa93.00 %7.56 km/hN4.00 °C4.60 °C 
04:14:005.30 °C1026.10 hPa93.00 %8.64 km/hOSO3.30 °C4.30 °C 
03:59:004.90 °C1026.00 hPa92.00 %3.70 °C 
03:44:004.40 °C1025.90 hPa92.00 %3.20 °C 
03:29:004.40 °C1025.60 hPa92.00 %20.16 km/hSSO0.30 °C3.20 °C 
03:14:004.40 °C1025.70 hPa92.00 %3.20 °C 
02:59:004.50 °C1025.60 hPa92.00 %3.30 °C 
02:44:004.70 °C1025.70 hPa92.00 %3.50 °C 
02:29:004.80 °C1025.90 hPa92.00 %5.76 km/hOSO3.60 °C3.60 °C 
02:14:004.90 °C1025.70 hPa92.00 %3.70 °C 
01:59:004.90 °C1025.80 hPa92.00 %2.52 km/hNO4.90 °C3.70 °C 
01:44:004.90 °C1025.80 hPa92.00 %3.70 °C 
01:29:004.90 °C1026.00 hPa91.00 %5.76 km/hWSW3.70 °C3.60 °C 
01:14:004.90 °C1026.10 hPa91.00 %3.60 °C 
00:59:004.90 °C1025.90 hPa91.00 %3.60 °C 
00:44:004.90 °C1026.00 hPa91.00 %3.60 °C 
00:29:004.90 °C1025.90 hPa91.00 %3.60 °C 
00:14:004.90 °C1026.00 hPa91.00 %3.60 °C 

Permanenter Link zu dieser Seite: Wetter im Erzgebirge am 31.10.2015
Performance-Info: Die Erstellung der Seite / Statistik(en) / Tabelle(n) erforderte 5 Datenbankserver-Abfrage(n) und dauerte 98 Millisekunden. (Dieser Messwert ist von der Gesamt-Auslastung des Servers abhängig.)
Erzgebirge - Wetter | Erzgebirge - Wetter (Mobilgeräte) | Komplette Klimadatenbank